sensor_id;sensor_type;location;lat;lon;timestamp;P1;durP1;ratioP1;P2;durP2;ratioP2
34982;SDS011;21187;50.976;13.720;2023-05-07T00:04:20;25.05;;;11.30;;
34982;SDS011;21187;50.976;13.720;2023-05-07T00:09:22;27.70;;;11.68;;
34982;SDS011;21187;50.976;13.720;2023-05-07T00:14:24;28.77;;;12.73;;
34982;SDS011;21187;50.976;13.720;2023-05-07T00:19:26;26.83;;;12.07;;
34982;SDS011;21187;50.976;13.720;2023-05-07T00:24:28;28.48;;;12.95;;
34982;SDS011;21187;50.976;13.720;2023-05-07T00:29:30;26.48;;;13.52;;
34982;SDS011;21187;50.976;13.720;2023-05-07T00:34:32;29.17;;;12.82;;
34982;SDS011;21187;50.976;13.720;2023-05-07T00:39:34;25.85;;;12.18;;
34982;SDS011;21187;50.976;13.720;2023-05-07T00:44:36;27.38;;;12.95;;
34982;SDS011;21187;50.976;13.720;2023-05-07T00:49:39;27.55;;;12.38;;
34982;SDS011;21187;50.976;13.720;2023-05-07T00:54:46;31.30;;;13.57;;
34982;SDS011;21187;50.976;13.720;2023-05-07T00:59:50;32.85;;;13.80;;
34982;SDS011;21187;50.976;13.720;2023-05-07T01:04:53;26.73;;;12.48;;
34982;SDS011;21187;50.976;13.720;2023-05-07T01:09:57;30.48;;;12.82;;
34982;SDS011;21187;50.976;13.720;2023-05-07T01:14:59;28.65;;;12.57;;
34982;SDS011;21187;50.976;13.720;2023-05-07T01:20:03;23.98;;;11.80;;
34982;SDS011;21187;50.976;13.720;2023-05-07T01:25:07;28.95;;;13.20;;
34982;SDS011;21187;50.976;13.720;2023-05-07T01:30:14;25.95;;;12.38;;
34982;SDS011;21187;50.976;13.720;2023-05-07T01:35:18;31.85;;;15.00;;
34982;SDS011;21187;50.976;13.720;2023-05-07T01:40:22;34.25;;;14.68;;
34982;SDS011;21187;50.976;13.720;2023-05-07T01:45:26;40.60;;;15.02;;
34982;SDS011;21187;50.976;13.720;2023-05-07T01:50:29;34.92;;;14.18;;
34982;SDS011;21187;50.976;13.720;2023-05-07T01:55:33;32.28;;;14.43;;
34982;SDS011;21187;50.976;13.720;2023-05-07T02:00:35;38.35;;;16.08;;
34982;SDS011;21187;50.976;13.720;2023-05-07T02:05:38;27.55;;;13.52;;
34982;SDS011;21187;50.976;13.720;2023-05-07T02:10:58;35.28;;;15.43;;
34982;SDS011;21187;50.976;13.720;2023-05-07T02:16:00;34.72;;;16.08;;
34982;SDS011;21187;50.976;13.720;2023-05-07T02:21:03;32.88;;;16.27;;
34982;SDS011;21187;50.976;13.720;2023-05-07T02:26:06;32.50;;;15.00;;
34982;SDS011;21187;50.976;13.720;2023-05-07T02:31:08;33.45;;;15.40;;
34982;SDS011;21187;50.976;13.720;2023-05-07T02:36:10;35.35;;;15.35;;
34982;SDS011;21187;50.976;13.720;2023-05-07T02:41:19;37.57;;;15.80;;
34982;SDS011;21187;50.976;13.720;2023-05-07T02:46:22;35.70;;;15.98;;
34982;SDS011;21187;50.976;13.720;2023-05-07T02:56:37;35.50;;;15.35;;
34982;SDS011;21187;50.976;13.720;2023-05-07T03:01:39;31.63;;;15.13;;
34982;SDS011;21187;50.976;13.720;2023-05-07T03:06:42;30.95;;;15.50;;
34982;SDS011;21187;50.976;13.720;2023-05-07T03:11:44;39.20;;;17.02;;
34982;SDS011;21187;50.976;13.720;2023-05-07T03:16:47;34.38;;;16.05;;
34982;SDS011;21187;50.976;13.720;2023-05-07T03:21:48;33.05;;;15.63;;
34982;SDS011;21187;50.976;13.720;2023-05-07T03:26:51;35.85;;;16.85;;
34982;SDS011;21187;50.976;13.720;2023-05-07T03:31:53;29.15;;;13.38;;
34982;SDS011;21187;50.976;13.720;2023-05-07T03:36:55;31.70;;;14.25;;
34982;SDS011;21187;50.976;13.720;2023-05-07T03:41:58;29.77;;;13.45;;
34982;SDS011;21187;50.976;13.720;2023-05-07T03:47:00;28.35;;;12.85;;
34982;SDS011;21187;50.976;13.720;2023-05-07T03:52:02;22.58;;;11.82;;
34982;SDS011;21187;50.976;13.720;2023-05-07T03:57:05;26.27;;;11.13;;
34982;SDS011;21187;50.976;13.720;2023-05-07T04:02:07;21.52;;;9.18;;
34982;SDS011;21187;50.976;13.720;2023-05-07T04:07:10;19.75;;;9.10;;
34982;SDS011;21187;50.976;13.720;2023-05-07T04:12:16;16.05;;;7.72;;
34982;SDS011;21187;50.976;13.720;2023-05-07T04:17:18;17.98;;;8.32;;
34982;SDS011;21187;50.976;13.720;2023-05-07T04:22:20;14.90;;;8.10;;
34982;SDS011;21187;50.976;13.720;2023-05-07T04:27:22;16.15;;;8.05;;
34982;SDS011;21187;50.976;13.720;2023-05-07T04:32:24;20.17;;;8.75;;
34982;SDS011;21187;50.976;13.720;2023-05-07T04:37:27;19.67;;;8.55;;
34982;SDS011;21187;50.976;13.720;2023-05-07T04:42:29;20.13;;;8.77;;
34982;SDS011;21187;50.976;13.720;2023-05-07T04:47:31;18.67;;;9.07;;
34982;SDS011;21187;50.976;13.720;2023-05-07T04:52:35;22.60;;;9.95;;
34982;SDS011;21187;50.976;13.720;2023-05-07T04:57:37;22.17;;;9.55;;
34982;SDS011;21187;50.976;13.720;2023-05-07T05:02:41;20.75;;;9.80;;
34982;SDS011;21187;50.976;13.720;2023-05-07T05:07:48;24.92;;;10.02;;
34982;SDS011;21187;50.976;13.720;2023-05-07T05:12:50;20.27;;;9.70;;
34982;SDS011;21187;50.976;13.720;2023-05-07T05:17:53;21.98;;;9.35;;
34982;SDS011;21187;50.976;13.720;2023-05-07T05:22:56;23.13;;;9.98;;
34982;SDS011;21187;50.976;13.720;2023-05-07T05:27:58;21.60;;;9.68;;
34982;SDS011;21187;50.976;13.720;2023-05-07T05:33:00;23.08;;;10.27;;
34982;SDS011;21187;50.976;13.720;2023-05-07T05:38:02;25.88;;;10.07;;
34982;SDS011;21187;50.976;13.720;2023-05-07T05:43:05;20.35;;;9.95;;
34982;SDS011;21187;50.976;13.720;2023-05-07T05:48:07;24.77;;;10.38;;
34982;SDS011;21187;50.976;13.720;2023-05-07T05:53:10;22.70;;;10.13;;
34982;SDS011;21187;50.976;13.720;2023-05-07T05:58:13;18.95;;;9.25;;
34982;SDS011;21187;50.976;13.720;2023-05-07T06:03:23;23.00;;;11.25;;
34982;SDS011;21187;50.976;13.720;2023-05-07T06:08:25;26.13;;;11.77;;
34982;SDS011;21187;50.976;13.720;2023-05-07T06:13:31;18.60;;;9.77;;
34982;SDS011;21187;50.976;13.720;2023-05-07T06:18:33;25.45;;;9.82;;
34982;SDS011;21187;50.976;13.720;2023-05-07T06:23:38;22.55;;;10.32;;
34982;SDS011;21187;50.976;13.720;2023-05-07T06:28:41;22.77;;;10.10;;
34982;SDS011;21187;50.976;13.720;2023-05-07T06:33:46;19.45;;;9.50;;
34982;SDS011;21187;50.976;13.720;2023-05-07T06:38:49;21.88;;;9.43;;
34982;SDS011;21187;50.976;13.720;2023-05-07T06:43:51;24.67;;;9.15;;
34982;SDS011;21187;50.976;13.720;2023-05-07T06:49:05;21.58;;;8.40;;
34982;SDS011;21187;50.976;13.720;2023-05-07T06:54:08;16.42;;;7.20;;
34982;SDS011;21187;50.976;13.720;2023-05-07T06:59:12;13.23;;;5.68;;
34982;SDS011;21187;50.976;13.720;2023-05-07T07:04:15;13.80;;;6.50;;
34982;SDS011;21187;50.976;13.720;2023-05-07T07:09:20;12.45;;;6.60;;
34982;SDS011;21187;50.976;13.720;2023-05-07T07:14:25;11.82;;;5.75;;
34982;SDS011;21187;50.976;13.720;2023-05-07T07:19:28;14.13;;;5.68;;
34982;SDS011;21187;50.976;13.720;2023-05-07T07:24:32;13.23;;;6.18;;
34982;SDS011;21187;50.976;13.720;2023-05-07T07:29:37;10.77;;;5.63;;
34982;SDS011;21187;50.976;13.720;2023-05-07T07:34:39;12.70;;;6.45;;
34982;SDS011;21187;50.976;13.720;2023-05-07T07:39:42;15.32;;;7.50;;
34982;SDS011;21187;50.976;13.720;2023-05-07T07:44:45;12.82;;;6.35;;
34982;SDS011;21187;50.976;13.720;2023-05-07T07:49:49;11.23;;;6.03;;
34982;SDS011;21187;50.976;13.720;2023-05-07T07:54:52;13.95;;;6.50;;
34982;SDS011;21187;50.976;13.720;2023-05-07T07:59:55;11.18;;;6.15;;
34982;SDS011;21187;50.976;13.720;2023-05-07T08:04:58;8.95;;;5.47;;
34982;SDS011;21187;50.976;13.720;2023-05-07T08:10:01;12.48;;;6.25;;
34982;SDS011;21187;50.976;13.720;2023-05-07T08:15:04;8.75;;;4.60;;
34982;SDS011;21187;50.976;13.720;2023-05-07T08:20:07;9.38;;;4.70;;
34982;SDS011;21187;50.976;13.720;2023-05-07T08:25:09;6.72;;;4.32;;
34982;SDS011;21187;50.976;13.720;2023-05-07T08:30:12;6.00;;;4.15;;
34982;SDS011;21187;50.976;13.720;2023-05-07T08:35:14;6.55;;;4.75;;
34982;SDS011;21187;50.976;13.720;2023-05-07T08:40:16;7.85;;;4.65;;
34982;SDS011;21187;50.976;13.720;2023-05-07T08:45:19;7.43;;;4.00;;
34982;SDS011;21187;50.976;13.720;2023-05-07T08:50:24;5.43;;;3.95;;
34982;SDS011;21187;50.976;13.720;2023-05-07T08:55:28;9.88;;;4.07;;
34982;SDS011;21187;50.976;13.720;2023-05-07T09:00:30;6.60;;;4.40;;
34982;SDS011;21187;50.976;13.720;2023-05-07T09:05:35;6.68;;;3.97;;
34982;SDS011;21187;50.976;13.720;2023-05-07T09:10:40;7.50;;;4.88;;
34982;SDS011;21187;50.976;13.720;2023-05-07T09:15:42;7.53;;;5.00;;
34982;SDS011;21187;50.976;13.720;2023-05-07T09:20:45;8.40;;;4.30;;
34982;SDS011;21187;50.976;13.720;2023-05-07T09:25:47;6.95;;;4.55;;
34982;SDS011;21187;50.976;13.720;2023-05-07T09:30:56;8.23;;;5.00;;
34982;SDS011;21187;50.976;13.720;2023-05-07T09:35:58;15.52;;;5.13;;
34982;SDS011;21187;50.976;13.720;2023-05-07T09:41:07;9.10;;;5.45;;
34982;SDS011;21187;50.976;13.720;2023-05-07T09:46:18;8.60;;;5.25;;
34982;SDS011;21187;50.976;13.720;2023-05-07T09:51:30;8.13;;;5.10;;
34982;SDS011;21187;50.976;13.720;2023-05-07T09:56:48;10.77;;;5.05;;
34982;SDS011;21187;50.976;13.720;2023-05-07T10:01:52;9.57;;;5.47;;
34982;SDS011;21187;50.976;13.720;2023-05-07T10:06:59;9.43;;;5.30;;
34982;SDS011;21187;50.976;13.720;2023-05-07T10:12:04;7.50;;;4.90;;
34982;SDS011;21187;50.976;13.720;2023-05-07T10:17:08;10.55;;;5.13;;
34982;SDS011;21187;50.976;13.720;2023-05-07T10:22:15;10.18;;;5.35;;
34982;SDS011;21187;50.976;13.720;2023-05-07T10:27:20;9.13;;;4.30;;
34982;SDS011;21187;50.976;13.720;2023-05-07T10:32:36;8.95;;;5.53;;
34982;SDS011;21187;50.976;13.720;2023-05-07T10:37:40;8.85;;;4.97;;
34982;SDS011;21187;50.976;13.720;2023-05-07T10:48:20;9.25;;;5.38;;
34982;SDS011;21187;50.976;13.720;2023-05-07T10:53:39;11.70;;;5.78;;
34982;SDS011;21187;50.976;13.720;2023-05-07T10:58:50;10.43;;;5.63;;
34982;SDS011;21187;50.976;13.720;2023-05-07T11:04:15;7.75;;;4.90;;
34982;SDS011;21187;50.976;13.720;2023-05-07T11:15:04;9.25;;;5.45;;
34982;SDS011;21187;50.976;13.720;2023-05-07T11:20:12;9.48;;;5.68;;
34982;SDS011;21187;50.976;13.720;2023-05-07T11:25:22;7.90;;;5.07;;
34982;SDS011;21187;50.976;13.720;2023-05-07T11:30:34;11.00;;;5.70;;
34982;SDS011;21187;50.976;13.720;2023-05-07T11:35:38;8.13;;;5.28;;
34982;SDS011;21187;50.976;13.720;2023-05-07T11:40:50;13.27;;;5.43;;
34982;SDS011;21187;50.976;13.720;2023-05-07T11:46:04;8.57;;;5.70;;
34982;SDS011;21187;50.976;13.720;2023-05-07T11:51:10;11.57;;;5.65;;
34982;SDS011;21187;50.976;13.720;2023-05-07T11:56:16;9.10;;;5.22;;
34982;SDS011;21187;50.976;13.720;2023-05-07T12:01:19;12.43;;;5.45;;
34982;SDS011;21187;50.976;13.720;2023-05-07T12:06:21;10.45;;;5.60;;
34982;SDS011;21187;50.976;13.720;2023-05-07T12:11:23;7.82;;;5.30;;
34982;SDS011;21187;50.976;13.720;2023-05-07T12:16:26;8.43;;;5.32;;
34982;SDS011;21187;50.976;13.720;2023-05-07T12:21:29;7.28;;;5.32;;
34982;SDS011;21187;50.976;13.720;2023-05-07T12:26:31;9.82;;;4.97;;
34982;SDS011;21187;50.976;13.720;2023-05-07T12:31:33;9.32;;;5.15;;
34982;SDS011;21187;50.976;13.720;2023-05-07T12:36:38;9.18;;;4.78;;
34982;SDS011;21187;50.976;13.720;2023-05-07T12:41:57;7.95;;;5.05;;
34982;SDS011;21187;50.976;13.720;2023-05-07T12:47:03;9.23;;;6.10;;
34982;SDS011;21187;50.976;13.720;2023-05-07T12:52:05;8.68;;;5.53;;
34982;SDS011;21187;50.976;13.720;2023-05-07T12:57:08;9.93;;;5.88;;
34982;SDS011;21187;50.976;13.720;2023-05-07T13:02:11;8.63;;;5.70;;
34982;SDS011;21187;50.976;13.720;2023-05-07T13:07:14;10.90;;;6.38;;
34982;SDS011;21187;50.976;13.720;2023-05-07T13:12:16;9.20;;;5.55;;
34982;SDS011;21187;50.976;13.720;2023-05-07T13:17:18;13.02;;;6.45;;
34982;SDS011;21187;50.976;13.720;2023-05-07T13:22:21;9.60;;;5.90;;
34982;SDS011;21187;50.976;13.720;2023-05-07T13:27:23;10.18;;;6.05;;
34982;SDS011;21187;50.976;13.720;2023-05-07T13:32:25;10.00;;;5.43;;
34982;SDS011;21187;50.976;13.720;2023-05-07T13:37:27;8.68;;;5.28;;
34982;SDS011;21187;50.976;13.720;2023-05-07T13:42:30;10.27;;;5.35;;
34982;SDS011;21187;50.976;13.720;2023-05-07T13:47:32;12.60;;;5.90;;
34982;SDS011;21187;50.976;13.720;2023-05-07T13:52:34;7.93;;;5.10;;
34982;SDS011;21187;50.976;13.720;2023-05-07T13:57:36;10.35;;;5.00;;
34982;SDS011;21187;50.976;13.720;2023-05-07T14:02:39;8.55;;;5.03;;
34982;SDS011;21187;50.976;13.720;2023-05-07T14:07:41;8.23;;;5.15;;
34982;SDS011;21187;50.976;13.720;2023-05-07T14:12:44;7.53;;;4.75;;
34982;SDS011;21187;50.976;13.720;2023-05-07T14:17:48;6.13;;;4.00;;
34982;SDS011;21187;50.976;13.720;2023-05-07T14:22:50;7.07;;;4.93;;
34982;SDS011;21187;50.976;13.720;2023-05-07T14:27:52;7.30;;;4.38;;
34982;SDS011;21187;50.976;13.720;2023-05-07T14:32:54;9.65;;;4.38;;
34982;SDS011;21187;50.976;13.720;2023-05-07T14:37:56;9.70;;;4.35;;
34982;SDS011;21187;50.976;13.720;2023-05-07T14:42:58;4.25;;;3.30;;
34982;SDS011;21187;50.976;13.720;2023-05-07T14:48:00;5.22;;;3.38;;
34982;SDS011;21187;50.976;13.720;2023-05-07T14:53:02;7.05;;;3.20;;
34982;SDS011;21187;50.976;13.720;2023-05-07T14:58:05;7.00;;;3.72;;
34982;SDS011;21187;50.976;13.720;2023-05-07T15:03:07;4.28;;;3.20;;
34982;SDS011;21187;50.976;13.720;2023-05-07T15:08:11;8.23;;;4.18;;
34982;SDS011;21187;50.976;13.720;2023-05-07T15:13:13;5.95;;;3.17;;
34982;SDS011;21187;50.976;13.720;2023-05-07T15:18:16;4.55;;;3.35;;
34982;SDS011;21187;50.976;13.720;2023-05-07T15:23:18;4.40;;;3.20;;
34982;SDS011;21187;50.976;13.720;2023-05-07T15:28:22;7.35;;;3.97;;
34982;SDS011;21187;50.976;13.720;2023-05-07T15:33:28;8.63;;;4.20;;
34982;SDS011;21187;50.976;13.720;2023-05-07T15:38:30;5.72;;;3.65;;
34982;SDS011;21187;50.976;13.720;2023-05-07T15:43:32;6.55;;;4.10;;
34982;SDS011;21187;50.976;13.720;2023-05-07T15:48:35;9.15;;;4.47;;
34982;SDS011;21187;50.976;13.720;2023-05-07T15:53:37;7.20;;;4.15;;
34982;SDS011;21187;50.976;13.720;2023-05-07T15:58:41;6.28;;;4.10;;
34982;SDS011;21187;50.976;13.720;2023-05-07T16:03:43;10.93;;;4.53;;
34982;SDS011;21187;50.976;13.720;2023-05-07T16:08:45;7.68;;;4.38;;
34982;SDS011;21187;50.976;13.720;2023-05-07T16:13:48;8.23;;;4.45;;
34982;SDS011;21187;50.976;13.720;2023-05-07T16:18:50;8.18;;;4.30;;
34982;SDS011;21187;50.976;13.720;2023-05-07T16:23:52;6.88;;;4.78;;
34982;SDS011;21187;50.976;13.720;2023-05-07T16:28:54;6.93;;;4.57;;
34982;SDS011;21187;50.976;13.720;2023-05-07T16:33:57;6.60;;;4.82;;
34982;SDS011;21187;50.976;13.720;2023-05-07T16:38:59;7.50;;;4.85;;
34982;SDS011;21187;50.976;13.720;2023-05-07T16:44:01;7.78;;;4.30;;
34982;SDS011;21187;50.976;13.720;2023-05-07T16:49:04;8.07;;;4.88;;
34982;SDS011;21187;50.976;13.720;2023-05-07T16:54:07;7.85;;;5.22;;
34982;SDS011;21187;50.976;13.720;2023-05-07T16:59:10;7.65;;;4.85;;
34982;SDS011;21187;50.976;13.720;2023-05-07T17:04:12;6.55;;;4.38;;
34982;SDS011;21187;50.976;13.720;2023-05-07T17:09:15;11.18;;;4.80;;
34982;SDS011;21187;50.976;13.720;2023-05-07T17:14:20;10.10;;;5.47;;
34982;SDS011;21187;50.976;13.720;2023-05-07T17:19:22;9.98;;;5.18;;
34982;SDS011;21187;50.976;13.720;2023-05-07T17:24:24;8.02;;;4.75;;
34982;SDS011;21187;50.976;13.720;2023-05-07T17:29:26;7.78;;;5.00;;
34982;SDS011;21187;50.976;13.720;2023-05-07T17:34:27;10.73;;;4.93;;
34982;SDS011;21187;50.976;13.720;2023-05-07T17:39:31;8.85;;;4.75;;
34982;SDS011;21187;50.976;13.720;2023-05-07T17:44:33;7.97;;;5.07;;
34982;SDS011;21187;50.976;13.720;2023-05-07T17:49:35;10.32;;;5.18;;
34982;SDS011;21187;50.976;13.720;2023-05-07T17:54:37;7.68;;;4.78;;
34982;SDS011;21187;50.976;13.720;2023-05-07T17:59:39;8.90;;;5.18;;
34982;SDS011;21187;50.976;13.720;2023-05-07T18:04:42;10.98;;;4.97;;
34982;SDS011;21187;50.976;13.720;2023-05-07T18:09:47;7.05;;;4.95;;
34982;SDS011;21187;50.976;13.720;2023-05-07T18:14:49;8.20;;;5.43;;
34982;SDS011;21187;50.976;13.720;2023-05-07T18:19:51;9.45;;;5.60;;
34982;SDS011;21187;50.976;13.720;2023-05-07T18:24:55;11.40;;;5.20;;
34982;SDS011;21187;50.976;13.720;2023-05-07T18:29:58;10.02;;;5.75;;
34982;SDS011;21187;50.976;13.720;2023-05-07T18:35:01;8.63;;;5.40;;
34982;SDS011;21187;50.976;13.720;2023-05-07T18:40:03;14.77;;;9.48;;
34982;SDS011;21187;50.976;13.720;2023-05-07T18:45:07;7.90;;;5.47;;
34982;SDS011;21187;50.976;13.720;2023-05-07T18:50:09;9.38;;;6.07;;
34982;SDS011;21187;50.976;13.720;2023-05-07T18:55:12;10.77;;;5.60;;
34982;SDS011;21187;50.976;13.720;2023-05-07T19:00:14;9.45;;;5.68;;
34982;SDS011;21187;50.976;13.720;2023-05-07T19:05:16;10.82;;;6.32;;
34982;SDS011;21187;50.976;13.720;2023-05-07T19:10:18;10.13;;;6.00;;
34982;SDS011;21187;50.976;13.720;2023-05-07T19:15:21;9.00;;;5.93;;
34982;SDS011;21187;50.976;13.720;2023-05-07T19:20:23;10.30;;;5.43;;
34982;SDS011;21187;50.976;13.720;2023-05-07T19:25:25;9.60;;;5.88;;
34982;SDS011;21187;50.976;13.720;2023-05-07T19:30:28;11.73;;;6.38;;
34982;SDS011;21187;50.976;13.720;2023-05-07T19:35:30;13.40;;;6.85;;
34982;SDS011;21187;50.976;13.720;2023-05-07T19:40:32;11.70;;;6.95;;
34982;SDS011;21187;50.976;13.720;2023-05-07T19:45:34;9.95;;;6.32;;
34982;SDS011;21187;50.976;13.720;2023-05-07T19:50:35;21.23;;;12.13;;
34982;SDS011;21187;50.976;13.720;2023-05-07T19:55:37;23.88;;;14.57;;
34982;SDS011;21187;50.976;13.720;2023-05-07T20:00:39;15.60;;;10.43;;
34982;SDS011;21187;50.976;13.720;2023-05-07T20:05:44;17.33;;;10.85;;
34982;SDS011;21187;50.976;13.720;2023-05-07T20:10:48;11.38;;;6.68;;
34982;SDS011;21187;50.976;13.720;2023-05-07T20:15:50;11.30;;;6.68;;
34982;SDS011;21187;50.976;13.720;2023-05-07T20:20:53;11.07;;;7.13;;
34982;SDS011;21187;50.976;13.720;2023-05-07T20:25:56;11.07;;;7.10;;
34982;SDS011;21187;50.976;13.720;2023-05-07T20:30:58;10.63;;;6.47;;
34982;SDS011;21187;50.976;13.720;2023-05-07T20:36:00;11.63;;;6.75;;
34982;SDS011;21187;50.976;13.720;2023-05-07T20:41:05;9.80;;;6.43;;
34982;SDS011;21187;50.976;13.720;2023-05-07T20:46:08;13.10;;;5.95;;
34982;SDS011;21187;50.976;13.720;2023-05-07T20:51:10;8.10;;;5.68;;
34982;SDS011;21187;50.976;13.720;2023-05-07T20:56:14;10.15;;;5.97;;
34982;SDS011;21187;50.976;13.720;2023-05-07T21:01:16;11.52;;;5.40;;
34982;SDS011;21187;50.976;13.720;2023-05-07T21:06:21;9.88;;;5.35;;
34982;SDS011;21187;50.976;13.720;2023-05-07T21:11:26;10.32;;;5.80;;
34982;SDS011;21187;50.976;13.720;2023-05-07T21:16:28;8.75;;;5.13;;
34982;SDS011;21187;50.976;13.720;2023-05-07T21:21:30;10.77;;;5.45;;
34982;SDS011;21187;50.976;13.720;2023-05-07T21:26:32;9.27;;;5.38;;
34982;SDS011;21187;50.976;13.720;2023-05-07T21:31:34;9.45;;;5.15;;
34982;SDS011;21187;50.976;13.720;2023-05-07T21:36:36;13.15;;;5.22;;
34982;SDS011;21187;50.976;13.720;2023-05-07T21:41:38;8.32;;;4.70;;
34982;SDS011;21187;50.976;13.720;2023-05-07T21:46:40;9.30;;;5.05;;
34982;SDS011;21187;50.976;13.720;2023-05-07T21:51:42;9.15;;;5.03;;
34982;SDS011;21187;50.976;13.720;2023-05-07T21:56:44;11.10;;;5.45;;
34982;SDS011;21187;50.976;13.720;2023-05-07T22:01:47;7.32;;;4.72;;
34982;SDS011;21187;50.976;13.720;2023-05-07T22:06:49;10.00;;;4.90;;
34982;SDS011;21187;50.976;13.720;2023-05-07T22:11:51;8.90;;;5.18;;
34982;SDS011;21187;50.976;13.720;2023-05-07T22:16:53;8.18;;;5.20;;
34982;SDS011;21187;50.976;13.720;2023-05-07T22:21:55;11.07;;;4.95;;
34982;SDS011;21187;50.976;13.720;2023-05-07T22:26:57;10.00;;;5.05;;
34982;SDS011;21187;50.976;13.720;2023-05-07T22:31:58;7.57;;;4.72;;
34982;SDS011;21187;50.976;13.720;2023-05-07T22:37:00;8.80;;;5.03;;
34982;SDS011;21187;50.976;13.720;2023-05-07T22:42:02;10.02;;;5.57;;
34982;SDS011;21187;50.976;13.720;2023-05-07T22:47:04;7.90;;;4.90;;
34982;SDS011;21187;50.976;13.720;2023-05-07T22:52:06;9.30;;;5.60;;
34982;SDS011;21187;50.976;13.720;2023-05-07T22:57:08;9.32;;;4.55;;
34982;SDS011;21187;50.976;13.720;2023-05-07T23:02:10;7.45;;;4.75;;
34982;SDS011;21187;50.976;13.720;2023-05-07T23:07:12;9.52;;;5.00;;
34982;SDS011;21187;50.976;13.720;2023-05-07T23:12:14;7.57;;;4.80;;
34982;SDS011;21187;50.976;13.720;2023-05-07T23:17:16;7.95;;;5.22;;
34982;SDS011;21187;50.976;13.720;2023-05-07T23:22:18;10.13;;;4.93;;
34982;SDS011;21187;50.976;13.720;2023-05-07T23:27:20;7.90;;;4.85;;
34982;SDS011;21187;50.976;13.720;2023-05-07T23:32:22;13.13;;;5.43;;
34982;SDS011;21187;50.976;13.720;2023-05-07T23:37:24;7.07;;;4.35;;
34982;SDS011;21187;50.976;13.720;2023-05-07T23:42:25;10.93;;;5.63;;
34982;SDS011;21187;50.976;13.720;2023-05-07T23:47:27;8.50;;;5.10;;
34982;SDS011;21187;50.976;13.720;2023-05-07T23:52:30;10.18;;;5.25;;
34982;SDS011;21187;50.976;13.720;2023-05-07T23:57:32;9.10;;;5.32;;
